Gould, Arkansas
Current Conditions -  °F | °C
As of 1:53 AM on Saturday 20 Dec 2014 (Local Time) from KPBF Reporting Station
Overcast Overcast  
Wind Chill:   Ceiling: 5000
Heat Index:   Visibility: 9mi
Dew Point:   Wind: 6mph
Humidity: 89%   Direction: 20°NNE
Pressure: 30.22"   Gusts: NA
Location:  33.99°N, 91.56°W
Report Text: KPBF 200753Z AUTO 02005KT 9SM BKN050 OVC090 04/03 A3022 RMK AO2 SLP235 T00440028
Loading
Personal Weather Stations






























Interactive Weather Map New forecast layout! Learn more

10-Day Weather Forecast

Advertisements
Track Severe Weather on mobile